Terrenceville, Canada
Current Conditions -  °F | °C
As of 12:00 PM on Friday 19 Dec 2014 (Local Time) from CYQX Reporting Station
Drizzle Drizzle  
Wind Chill:   Ceiling: 400
Heat Index:   Visibility: 15mi
Dew Point:   Wind: 22mph
Humidity: 93%   Direction: 220°SW
Pressure: 29.27"   Gusts: 32mph
Location:  47.68°N, 54.72°W
Report Text: CYQX 191500Z 22019G28KT 15SM -DZ BKN004 BKN009 OVC015 05/04 A2927 RMK SF5SF2SC1 SLP918
Loading
Personal Weather Stations






























Interactive Weather Map New forecast layout! Learn more

10-Day Weather Forecast

Advertisements
Track Severe Weather on mobile